createdAt,value
2017-06-17T00:00:36.313Z,8.23
2017-06-17T00:03:04.748Z,13.40
2017-06-17T00:05:32.391Z,12.63
2017-06-17T00:08:00.079Z,12.63
2017-06-17T00:10:27.698Z,9.33
2017-06-17T00:12:55.349Z,6.83
2017-06-17T00:15:23.005Z,10.60
2017-06-17T00:17:50.650Z,12.67
2017-06-17T00:20:19.102Z,15.50
2017-06-17T00:22:46.744Z,11.20
2017-06-17T00:25:14.379Z,9.20
2017-06-17T00:27:42.033Z,12.93
2017-06-17T00:30:09.658Z,9.80
2017-06-17T00:32:37.350Z,7.00
2017-06-17T00:35:05.741Z,12.13
2017-06-17T00:37:33.370Z,10.20
2017-06-17T00:40:01.040Z,10.60
2017-06-17T00:42:29.446Z,16.17
2017-06-17T00:44:57.114Z,6.97
2017-06-17T00:47:24.748Z,8.30
2017-06-17T00:49:53.211Z,11.43
2017-06-17T00:52:20.871Z,9.27
2017-06-17T00:54:48.508Z,8.13
2017-06-17T00:57:16.173Z,9.13
2017-06-17T00:59:43.793Z,8.47
2017-06-17T01:02:11.443Z,12.10
2017-06-17T01:04:39.880Z,9.87
2017-06-17T01:07:07.516Z,10.77
2017-06-17T01:09:35.199Z,8.23
2017-06-17T01:12:02.837Z,10.30
2017-06-17T01:14:30.483Z,6.30
2017-06-17T01:16:58.164Z,16.43
2017-06-17T01:19:25.799Z,9.83
2017-06-17T01:21:53.488Z,12.73
2017-06-17T01:24:21.131Z,15.70
2017-06-17T01:26:48.780Z,19.80
2017-06-17T01:29:16.464Z,10.37
2017-06-17T01:31:44.087Z,16.40
2017-06-17T01:34:12.521Z,17.37
2017-06-17T01:36:40.159Z,12.90
2017-06-17T01:39:07.794Z,18.33
2017-06-17T01:41:36.240Z,11.30
2017-06-17T01:44:03.865Z,8.27
2017-06-17T01:46:31.578Z,10.47
2017-06-17T01:48:59.198Z,7.90
2017-06-17T01:51:26.830Z,10.30
2017-06-17T01:53:54.519Z,13.27
2017-06-17T01:56:22.179Z,8.30
2017-06-17T01:58:49.864Z,8.00
2017-06-17T02:01:17.503Z,6.93
2017-06-17T02:03:45.148Z,17.50
2017-06-17T02:06:12.830Z,16.33
2017-06-17T02:08:40.474Z,11.10
2017-06-17T02:11:08.161Z,8.03
2017-06-17T02:13:35.799Z,6.67
2017-06-17T02:16:03.428Z,7.00
2017-06-17T02:18:31.117Z,10.47
2017-06-17T02:21:04.502Z,9.93
2017-06-17T02:23:32.961Z,15.03
2017-06-17T02:26:00.604Z,11.73
2017-06-17T02:28:28.243Z,14.17
2017-06-17T02:30:55.899Z,12.17
2017-06-17T02:33:23.588Z,6.70
2017-06-17T02:35:51.210Z,11.40
2017-06-17T02:38:18.860Z,5.83
2017-06-17T02:40:46.524Z,9.17
2017-06-17T02:43:14.141Z,5.60
2017-06-17T02:45:41.858Z,10.07
2017-06-17T02:48:09.481Z,8.83
2017-06-17T02:50:37.151Z,13.90
2017-06-17T02:53:04.787Z,8.70
2017-06-17T02:55:32.428Z,10.67
2017-06-17T02:58:00.097Z,9.23
2017-06-17T03:00:27.739Z,8.07
2017-06-17T03:02:55.392Z,13.40
2017-06-17T03:05:23.031Z,11.60
2017-06-17T03:07:51.485Z,15.60
2017-06-17T03:10:19.115Z,11.43
2017-06-17T03:12:46.781Z,7.60
2017-06-17T03:15:14.442Z,11.73
2017-06-17T03:17:42.069Z,12.37
2017-06-17T03:20:09.740Z,9.57
2017-06-17T03:22:37.384Z,6.53
2017-06-17T03:25:05.818Z,7.63
2017-06-17T03:27:33.441Z,7.13
2017-06-17T03:30:01.089Z,12.30
2017-06-17T03:32:28.740Z,7.93
2017-06-17T03:34:57.150Z,13.97
2017-06-17T03:37:24.816Z,11.80
2017-06-17T03:39:52.437Z,7.10
2017-06-17T03:42:20.135Z,12.87
2017-06-17T03:44:47.776Z,13.73
2017-06-17T03:47:15.404Z,8.33
2017-06-17T03:49:43.079Z,12.83
2017-06-17T03:52:11.482Z,12.40
2017-06-17T03:54:39.189Z,10.87
2017-06-17T03:57:06.827Z,6.20
2017-06-17T03:59:34.464Z,9.90
2017-06-17T04:02:02.133Z,13.37
2017-06-17T04:04:29.779Z,10.57
2017-06-17T04:06:57.450Z,12.93
2017-06-17T04:09:25.081Z,13.53
2017-06-17T04:11:52.723Z,7.37
2017-06-17T04:14:20.409Z,6.63
2017-06-17T04:16:48.052Z,12.10
2017-06-17T04:19:15.751Z,12.80
2017-06-17T04:21:44.160Z,20.30
2017-06-17T04:24:11.815Z,14.43
2017-06-17T04:26:39.480Z,9.30
2017-06-17T04:29:07.131Z,10.50
2017-06-17T04:31:34.786Z,13.17
2017-06-17T04:34:02.409Z,7.67
2017-06-17T04:36:30.077Z,9.60
2017-06-17T04:38:57.728Z,8.83
2017-06-17T04:41:25.364Z,5.77
2017-06-17T04:43:53.037Z,10.27
2017-06-17T04:46:20.662Z,11.27
2017-06-17T04:48:48.340Z,10.83
2017-06-17T04:51:15.962Z,7.03
2017-06-17T04:53:46.906Z,11.97
2017-06-17T04:56:14.658Z,12.10
2017-06-17T04:58:42.285Z,19.37
2017-06-17T05:01:10.076Z,8.00
2017-06-17T05:03:37.709Z,14.20
2017-06-17T05:06:05.384Z,14.77
2017-06-17T05:08:33.010Z,11.07
2017-06-17T05:11:00.660Z,11.40
2017-06-17T05:13:28.319Z,16.03
2017-06-17T05:15:55.972Z,12.00
2017-06-17T05:18:23.671Z,12.37
2017-06-17T05:20:51.299Z,9.30
2017-06-17T05:23:18.943Z,12.67
2017-06-17T05:25:47.383Z,10.63
2017-06-17T05:28:15.005Z,8.23
2017-06-17T05:30:42.692Z,18.40
2017-06-17T05:33:10.324Z,9.13
2017-06-17T05:35:37.967Z,11.37
2017-06-17T05:38:06.391Z,17.40
2017-06-17T05:40:34.027Z,15.03
2017-06-17T05:43:01.684Z,17.20
2017-06-17T05:45:29.331Z,10.80
2017-06-17T05:47:57.771Z,11.63
2017-06-17T05:50:25.398Z,9.90
2017-06-17T05:52:53.029Z,12.70
2017-06-17T05:55:20.701Z,11.47
2017-06-17T05:57:48.329Z,15.87
2017-06-17T06:00:15.981Z,11.50
2017-06-17T06:02:43.601Z,16.63
2017-06-17T06:05:11.269Z,9.60
2017-06-17T06:07:39.087Z,13.50
2017-06-17T06:10:06.875Z,9.97
2017-06-17T06:12:34.563Z,11.70
2017-06-17T06:15:02.204Z,6.70
2017-06-17T06:17:29.888Z,15.33
2017-06-17T06:19:57.525Z,7.10
2017-06-17T06:22:25.964Z,6.40
2017-06-17T06:24:53.611Z,11.57
2017-06-17T06:27:21.237Z,11.93
2017-06-17T06:29:49.659Z,9.63
2017-06-17T06:32:17.283Z,7.77
2017-06-17T06:34:44.936Z,6.70
2017-06-17T06:37:13.325Z,8.40
2017-06-17T06:39:41.461Z,10.47
2017-06-17T06:42:09.151Z,10.77
2017-06-17T06:44:37.559Z,7.23
2017-06-17T06:47:05.218Z,11.33
2017-06-17T06:49:32.859Z,10.07
2017-06-17T06:52:00.879Z,12.53
2017-06-17T06:54:29.409Z,6.20
2017-06-17T06:56:57.862Z,10.97
2017-06-17T06:59:25.494Z,19.97
2017-06-17T07:01:53.122Z,15.10
2017-06-17T07:04:20.773Z,10.30
2017-06-17T07:06:49.170Z,13.50
2017-06-17T07:09:16.840Z,7.73
2017-06-17T07:11:44.540Z,14.33
2017-06-17T07:14:12.238Z,6.23
2017-06-17T07:16:39.876Z,6.70
2017-06-17T07:19:07.580Z,8.13
2017-06-17T07:21:35.253Z,9.90
2017-06-17T07:24:05.905Z,5.70
2017-06-17T07:26:33.585Z,6.07
2017-06-17T07:29:01.213Z,6.73
2017-06-17T07:31:28.896Z,7.83
2017-06-17T07:33:56.868Z,11.73
2017-06-17T07:36:24.632Z,7.67
2017-06-17T07:38:52.450Z,6.10
2017-06-17T07:41:20.200Z,4.33
2017-06-17T07:43:48.008Z,9.50
2017-06-17T07:46:15.737Z,8.10
2017-06-17T07:48:43.574Z,6.13
2017-06-17T07:51:11.338Z,5.23
2017-06-17T07:53:39.097Z,12.57
2017-06-17T07:56:06.907Z,5.10
2017-06-17T07:58:34.724Z,7.50
2017-06-17T08:01:02.586Z,5.80
2017-06-17T08:03:30.456Z,4.53
2017-06-17T08:05:58.321Z,7.40
2017-06-17T08:08:26.182Z,5.10
2017-06-17T08:10:54.060Z,5.07
2017-06-17T08:13:21.915Z,5.23
2017-06-17T08:15:49.793Z,4.40
2017-06-17T08:18:17.651Z,7.60
2017-06-17T08:20:45.497Z,5.53
2017-06-17T08:23:13.985Z,3.93
2017-06-17T08:25:41.749Z,4.47
2017-06-17T08:28:09.370Z,5.43
2017-06-17T08:30:37.404Z,6.70
2017-06-17T08:33:05.861Z,3.50
2017-06-17T08:35:33.538Z,5.10
2017-06-17T08:38:01.390Z,5.20
2017-06-17T08:40:29.071Z,8.50
2017-06-17T08:42:56.837Z,4.00
2017-06-17T08:45:24.631Z,6.40
2017-06-17T08:47:53.213Z,5.63
2017-06-17T08:50:21.734Z,9.03
2017-06-17T08:52:49.550Z,6.23
2017-06-17T08:55:18.070Z,6.63
2017-06-17T08:57:45.914Z,2.73
2017-06-17T09:00:13.693Z,7.10
2017-06-17T09:02:41.451Z,3.73
2017-06-17T09:05:09.272Z,3.17
2017-06-17T09:07:37.042Z,6.07
2017-06-17T09:10:06.024Z,6.20
2017-06-17T09:12:33.800Z,2.20
2017-06-17T09:15:01.623Z,3.90
2017-06-17T09:17:29.403Z,3.03
2017-06-17T09:19:57.166Z,3.47
2017-06-17T09:22:24.987Z,3.33
2017-06-17T09:24:53.525Z,5.77
2017-06-17T09:27:21.329Z,4.20
2017-06-17T09:29:49.875Z,6.33
2017-06-17T09:32:17.679Z,4.37
2017-06-17T09:34:46.232Z,5.00
2017-06-17T09:37:14.004Z,3.03
2017-06-17T09:39:41.810Z,5.90
2017-06-17T09:42:09.579Z,3.53
2017-06-17T09:44:38.922Z,3.97
2017-06-17T09:47:07.044Z,6.67
2017-06-17T09:49:34.695Z,6.80
2017-06-17T09:52:03.127Z,6.00
2017-06-17T09:54:30.750Z,7.43
2017-06-17T09:56:58.419Z,2.20
2017-06-17T09:59:26.067Z,2.30
2017-06-17T10:01:53.720Z,4.60
2017-06-17T10:04:22.137Z,5.10
2017-06-17T10:06:49.765Z,2.63
2017-06-17T10:09:17.451Z,4.10
2017-06-17T10:11:45.093Z,6.03
2017-06-17T10:14:12.736Z,4.13
2017-06-17T10:16:41.146Z,3.40
2017-06-17T10:19:08.774Z,3.40
2017-06-17T10:21:36.461Z,7.13
2017-06-17T10:24:04.091Z,3.03
2017-06-17T10:26:33.267Z,3.20
2017-06-17T10:29:00.900Z,2.80
2017-06-17T10:31:28.606Z,2.80
2017-06-17T10:33:56.298Z,2.97
2017-06-17T10:36:23.932Z,2.27
2017-06-17T10:38:52.380Z,4.57
2017-06-17T10:41:20.015Z,2.07
2017-06-17T10:43:47.664Z,2.90
2017-06-17T10:46:15.323Z,6.80
2017-06-17T10:48:42.957Z,5.73
2017-06-17T10:51:10.628Z,5.73
2017-06-17T10:53:39.031Z,6.33
2017-06-17T10:56:06.707Z,4.10
2017-06-17T10:58:34.326Z,5.70
2017-06-17T11:01:01.955Z,6.20
2017-06-17T11:03:29.606Z,2.70
2017-06-17T11:05:57.239Z,5.40
2017-06-17T11:08:24.891Z,4.90
2017-06-17T11:10:53.278Z,4.87
2017-06-17T11:13:20.954Z,5.63
2017-06-17T11:15:48.744Z,2.70
2017-06-17T11:18:16.383Z,4.93
2017-06-17T11:20:44.048Z,4.00
2017-06-17T11:23:12.037Z,5.57
2017-06-17T11:25:39.719Z,5.00
2017-06-17T11:28:07.464Z,2.70
2017-06-17T11:30:35.138Z,3.70
2017-06-17T11:33:02.775Z,2.03
2017-06-17T11:35:30.408Z,1.90
2017-06-17T11:37:58.082Z,4.30
2017-06-17T11:40:25.874Z,4.13
2017-06-17T11:42:53.530Z,3.53
2017-06-17T11:45:21.216Z,2.80
2017-06-17T11:47:49.065Z,3.17
2017-06-17T11:50:16.726Z,2.50
2017-06-17T11:52:44.526Z,2.50
2017-06-17T11:55:12.942Z,2.20
2017-06-17T11:57:40.586Z,2.80
2017-06-17T12:00:09.001Z,3.13
2017-06-17T12:02:36.633Z,4.27
2017-06-17T12:05:04.301Z,1.93
2017-06-17T12:07:31.949Z,2.70
2017-06-17T12:09:59.570Z,1.80
2017-06-17T12:12:27.235Z,3.73
2017-06-17T12:14:54.859Z,1.87
2017-06-17T12:17:22.519Z,4.10
2017-06-17T12:19:50.145Z,2.63
2017-06-17T12:22:18.612Z,5.30
2017-06-17T12:24:46.233Z,4.80
2017-06-17T12:27:13.868Z,2.40
2017-06-17T12:29:41.525Z,4.17
2017-06-17T12:32:09.157Z,2.83
2017-06-17T12:34:36.825Z,3.50
2017-06-17T12:37:05.233Z,5.50
2017-06-17T12:39:32.926Z,1.73
2017-06-17T12:42:00.565Z,1.83
2017-06-17T12:44:28.204Z,2.83
2017-06-17T12:46:55.875Z,2.30
2017-06-17T12:49:23.509Z,2.07
2017-06-17T12:51:51.242Z,2.30
2017-06-17T12:54:18.927Z,4.40
2017-06-17T12:56:46.589Z,5.43
2017-06-17T12:59:14.431Z,2.00
2017-06-17T13:01:42.196Z,4.00
2017-06-17T13:04:09.888Z,4.63
2017-06-17T13:06:37.522Z,5.00
2017-06-17T13:09:05.285Z,4.80
2017-06-17T13:11:32.905Z,4.23
2017-06-17T13:14:00.632Z,3.27
2017-06-17T13:16:28.263Z,1.80
2017-06-17T13:18:55.889Z,8.33
2017-06-17T13:21:23.817Z,5.17
2017-06-17T13:23:51.680Z,5.07
2017-06-17T13:26:20.276Z,3.23
2017-06-17T13:28:49.036Z,3.20
2017-06-17T13:31:16.705Z,2.37
2017-06-17T13:33:44.409Z,3.43
2017-06-17T13:36:12.793Z,2.03
2017-06-17T13:38:40.605Z,5.13
2017-06-17T13:41:08.294Z,2.30
2017-06-17T13:43:36.045Z,3.60
2017-06-17T13:46:03.717Z,5.37
2017-06-17T13:48:31.561Z,4.07
2017-06-17T13:50:59.219Z,4.23
2017-06-17T13:53:27.601Z,4.37
2017-06-17T13:55:55.250Z,2.70
2017-06-17T13:58:23.215Z,4.10
2017-06-17T14:00:50.995Z,8.03
2017-06-17T14:03:18.670Z,4.50
2017-06-17T14:05:46.330Z,3.07
2017-06-17T14:08:13.953Z,3.70
2017-06-17T14:10:41.743Z,3.30
2017-06-17T14:13:09.434Z,2.40
2017-06-17T14:15:37.092Z,4.50
2017-06-17T14:18:04.936Z,8.83
2017-06-17T14:20:32.717Z,6.00
2017-06-17T14:23:00.489Z,3.17
2017-06-17T14:25:28.152Z,3.00
2017-06-17T14:27:55.996Z,4.47
2017-06-17T14:30:23.963Z,2.70
2017-06-17T14:32:51.830Z,8.27
2017-06-17T14:35:19.615Z,3.13
2017-06-17T14:37:47.277Z,6.80
2017-06-17T14:40:14.925Z,4.20
2017-06-17T14:42:42.684Z,2.10
2017-06-17T14:45:10.443Z,4.60
2017-06-17T14:47:38.069Z,4.97
2017-06-17T14:50:05.884Z,4.77
2017-06-17T14:52:33.525Z,1.93
2017-06-17T14:55:01.160Z,3.27
2017-06-17T14:57:28.876Z,3.00
2017-06-17T14:59:56.623Z,3.00
2017-06-17T15:02:24.293Z,7.03
2017-06-17T15:04:51.957Z,3.80
2017-06-17T15:07:19.625Z,2.63
2017-06-17T15:09:47.252Z,2.77
2017-06-17T15:12:15.031Z,3.80
2017-06-17T15:14:42.793Z,9.57
2017-06-17T15:17:10.456Z,2.17
2017-06-17T15:19:38.221Z,2.30
2017-06-17T15:22:05.842Z,2.73
2017-06-17T15:24:33.570Z,2.20
2017-06-17T15:27:01.412Z,2.10
2017-06-17T15:29:29.060Z,3.13
2017-06-17T15:31:56.764Z,2.70
2017-06-17T15:34:24.585Z,3.37
2017-06-17T15:36:52.262Z,1.83
2017-06-17T15:39:19.971Z,2.20
2017-06-17T15:41:48.507Z,4.20
2017-06-17T15:44:16.191Z,3.90
2017-06-17T15:46:43.935Z,7.57
2017-06-17T15:49:11.701Z,4.43
2017-06-17T15:51:39.384Z,3.40
2017-06-17T15:54:07.227Z,3.03
2017-06-17T15:56:35.110Z,3.90
2017-06-17T15:59:02.857Z,1.77
2017-06-17T16:01:30.513Z,3.90
2017-06-17T16:03:58.182Z,2.70
2017-06-17T16:06:25.930Z,3.50
2017-06-17T16:08:53.609Z,6.20
2017-06-17T16:11:21.237Z,2.47
2017-06-17T16:13:48.949Z,3.13
2017-06-17T16:16:16.573Z,2.30
2017-06-17T16:18:44.248Z,3.03
2017-06-17T16:21:12.022Z,2.87
2017-06-17T16:23:39.699Z,2.83
2017-06-17T16:26:07.553Z,1.50
2017-06-17T16:28:35.187Z,1.53
2017-06-17T16:31:02.990Z,2.20
2017-06-17T16:33:30.618Z,1.97
2017-06-17T16:35:58.323Z,2.70
2017-06-17T16:38:25.949Z,2.13
2017-06-17T16:40:53.724Z,4.53
2017-06-17T16:43:21.389Z,1.93
2017-06-17T16:45:49.629Z,2.43
2017-06-17T16:48:17.426Z,1.93
2017-06-17T16:50:45.947Z,2.90
2017-06-17T16:53:14.614Z,1.80
2017-06-17T16:55:42.444Z,1.87
2017-06-17T16:58:11.264Z,1.70
2017-06-17T17:00:39.235Z,3.40
2017-06-17T17:03:07.097Z,1.83
2017-06-17T17:05:35.064Z,3.47
2017-06-17T17:08:03.867Z,3.20
2017-06-17T17:10:32.652Z,2.43
2017-06-17T17:13:00.509Z,2.90
2017-06-17T17:15:29.696Z,2.43
2017-06-17T17:17:57.786Z,4.43
2017-06-17T17:20:25.646Z,3.37
2017-06-17T17:22:53.622Z,6.10
2017-06-17T17:25:21.370Z,2.40
2017-06-17T17:27:49.297Z,4.30
2017-06-17T17:30:17.114Z,8.73
2017-06-17T17:32:45.060Z,3.77
2017-06-17T17:35:12.833Z,2.00
2017-06-17T17:37:40.596Z,2.63
2017-06-17T17:40:08.282Z,3.30
2017-06-17T17:42:35.932Z,4.97
2017-06-17T17:45:03.682Z,2.67
2017-06-17T17:47:31.447Z,4.80
2017-06-17T17:49:59.069Z,2.43
2017-06-17T17:52:26.810Z,2.07
2017-06-17T17:54:54.526Z,6.60
2017-06-17T17:57:22.439Z,2.63
2017-06-17T17:59:50.836Z,2.90
2017-06-17T18:02:19.393Z,2.60
2017-06-17T18:04:47.231Z,3.20
2017-06-17T18:09:54.024Z,5.93
2017-06-17T18:12:21.962Z,2.20
2017-06-17T18:14:49.602Z,4.53
2017-06-17T18:17:17.995Z,3.13
2017-06-17T18:19:45.660Z,7.93
2017-06-17T18:22:13.374Z,4.60
2017-06-17T18:24:41.031Z,2.47
2017-06-17T18:27:08.885Z,3.10
2017-06-17T18:29:36.754Z,2.73
2017-06-17T18:32:04.516Z,2.30
2017-06-17T18:34:32.178Z,2.20
2017-06-17T18:36:59.831Z,4.53
2017-06-17T18:39:27.504Z,2.50
2017-06-17T18:41:55.269Z,2.77
2017-06-17T18:44:22.909Z,3.53
2017-06-17T18:46:51.585Z,3.13
2017-06-17T18:49:20.198Z,3.97
2017-06-17T18:51:48.594Z,2.03
2017-06-17T18:54:16.546Z,2.27
2017-06-17T18:56:44.231Z,3.37
2017-06-17T18:59:11.990Z,5.47
2017-06-17T19:01:39.610Z,2.40
2017-06-17T19:04:07.398Z,3.97
2017-06-17T19:06:35.162Z,4.07
2017-06-17T19:09:02.794Z,4.13
2017-06-17T19:11:30.511Z,4.30
2017-06-17T19:13:58.252Z,2.67
2017-06-17T19:16:25.918Z,2.40
2017-06-17T19:18:53.580Z,2.13
2017-06-17T19:21:21.259Z,4.57
2017-06-17T19:23:48.915Z,3.67
2017-06-17T19:26:16.662Z,3.77
2017-06-17T19:28:44.770Z,1.83
2017-06-17T19:31:13.161Z,3.93
2017-06-17T19:33:41.593Z,7.77
2017-06-17T19:36:09.255Z,4.60
2017-06-17T19:38:36.917Z,4.27
2017-06-17T19:41:04.849Z,4.30
2017-06-17T19:43:33.769Z,2.73
2017-06-17T19:46:01.642Z,4.13
2017-06-17T19:48:29.283Z,6.03
2017-06-17T19:50:57.071Z,4.10
2017-06-17T19:53:25.043Z,3.47
2017-06-17T19:55:52.681Z,3.60
2017-06-17T19:58:20.349Z,3.63
2017-06-17T20:00:48.022Z,3.03
2017-06-17T20:03:15.641Z,4.20
2017-06-17T20:05:43.575Z,2.20
2017-06-17T20:08:11.205Z,2.97
2017-06-17T20:10:38.861Z,4.30
2017-06-17T20:13:06.492Z,5.83
2017-06-17T20:15:34.364Z,5.87
2017-06-17T20:18:02.048Z,3.00
2017-06-17T20:20:29.708Z,4.43
2017-06-17T20:22:57.452Z,4.67
2017-06-17T20:25:25.091Z,3.90
2017-06-17T20:27:52.776Z,3.00
2017-06-17T20:30:20.539Z,2.53
2017-06-17T20:32:48.318Z,2.50
2017-06-17T20:35:15.941Z,2.43
2017-06-17T20:37:43.561Z,2.50
2017-06-17T20:40:12.007Z,4.53
2017-06-17T20:42:39.681Z,2.93
2017-06-17T20:45:07.535Z,2.70
2017-06-17T20:47:35.299Z,2.40
2017-06-17T20:50:02.970Z,2.20
2017-06-17T20:52:30.637Z,2.63
2017-06-17T20:54:59.227Z,2.80
2017-06-17T20:57:26.971Z,3.63
2017-06-17T20:59:54.591Z,2.73
2017-06-17T21:02:22.293Z,4.67
2017-06-17T21:04:49.913Z,2.90
2017-06-17T21:07:17.577Z,3.17
2017-06-17T21:09:45.382Z,4.33
2017-06-17T21:12:13.011Z,6.20
2017-06-17T21:14:40.681Z,4.83
2017-06-17T21:17:08.470Z,3.00
2017-06-17T21:19:36.356Z,3.87
2017-06-17T21:22:03.977Z,2.43
2017-06-17T21:24:31.641Z,3.03
2017-06-17T21:26:59.423Z,2.80
2017-06-17T21:29:27.041Z,2.70
2017-06-17T21:31:54.699Z,4.17
2017-06-17T21:34:23.143Z,2.60
2017-06-17T21:36:50.891Z,3.90
2017-06-17T21:39:18.509Z,4.03
2017-06-17T21:41:46.236Z,2.20
2017-06-17T21:44:14.081Z,2.70
2017-06-17T21:46:41.964Z,3.33
2017-06-17T21:49:09.837Z,4.70
2017-06-17T21:51:37.590Z,3.87
2017-06-17T21:54:06.082Z,2.50
2017-06-17T21:56:35.070Z,3.27
2017-06-17T21:59:03.859Z,2.80
2017-06-17T22:01:33.781Z,3.20
2017-06-17T22:04:01.734Z,4.90
2017-06-17T22:06:29.603Z,4.60
2017-06-17T22:08:57.361Z,3.47
2017-06-17T22:11:25.245Z,4.00
2017-06-17T22:13:53.108Z,8.60
2017-06-17T22:16:20.976Z,7.10
2017-06-17T22:18:48.838Z,8.90
2017-06-17T22:21:16.711Z,6.40
2017-06-17T22:23:44.570Z,5.43
2017-06-17T22:26:12.422Z,5.30
2017-06-17T22:28:40.249Z,9.10
2017-06-17T22:31:08.075Z,16.40
2017-06-17T22:33:35.944Z,12.70
2017-06-17T22:36:03.798Z,15.80
2017-06-17T22:38:31.666Z,10.17
2017-06-17T22:40:59.541Z,13.30
2017-06-17T22:43:27.401Z,16.20
2017-06-17T22:45:55.272Z,10.17
2017-06-17T22:48:23.140Z,12.47
2017-06-17T22:50:50.999Z,14.70
2017-06-17T22:53:18.878Z,11.77
2017-06-17T22:55:46.730Z,9.10
2017-06-17T22:58:14.600Z,18.97
2017-06-17T23:00:42.472Z,15.43
2017-06-17T23:03:10.337Z,12.07
2017-06-17T23:05:38.208Z,13.73
2017-06-17T23:08:06.178Z,12.33
2017-06-17T23:10:34.034Z,16.47
2017-06-17T23:13:01.900Z,14.77
2017-06-17T23:15:29.762Z,18.07
2017-06-17T23:17:57.616Z,10.77
2017-06-17T23:20:25.512Z,9.93
2017-06-17T23:22:53.375Z,7.63
2017-06-17T23:25:21.333Z,12.10
2017-06-17T23:27:49.525Z,11.30
2017-06-17T23:30:17.384Z,6.33
2017-06-17T23:32:45.245Z,12.40
2017-06-17T23:35:13.119Z,7.40
2017-06-17T23:37:40.979Z,11.10
2017-06-17T23:40:08.854Z,12.30
2017-06-17T23:42:36.813Z,7.33
2017-06-17T23:45:04.687Z,12.03
2017-06-17T23:47:32.554Z,12.73
2017-06-17T23:50:00.430Z,7.60
2017-06-17T23:52:28.219Z,8.10
2017-06-17T23:54:56.863Z,10.93
2017-06-17T23:57:24.737Z,9.93
2017-06-17T23:59:52.603Z,10.57
